createdAt,value
2023-05-02T00:00:57.360Z,95.230
2023-05-02T00:01:57.910Z,95.162
2023-05-02T00:02:57.596Z,95.343
2023-05-02T00:03:57.813Z,95.362
2023-05-02T00:05:57.042Z,95.492
2023-05-02T00:06:57.442Z,95.532
2023-05-02T00:07:56.670Z,95.610
2023-05-02T00:08:56.870Z,95.492
2023-05-02T00:09:57.097Z,95.551
2023-05-02T00:10:57.378Z,95.436
2023-05-02T00:11:57.608Z,95.631
2023-05-02T00:12:56.838Z,95.436
2023-05-02T00:13:57.088Z,95.503
2023-05-02T00:14:57.584Z,95.423
2023-05-02T00:15:56.754Z,95.530
2023-05-02T00:16:56.957Z,95.463
2023-05-02T00:17:57.439Z,95.558
2023-05-02T00:18:56.934Z,95.619
2023-05-02T00:19:57.557Z,95.526
2023-05-02T00:20:56.891Z,95.455
2023-05-02T00:21:57.249Z,95.381
2023-05-02T00:22:57.404Z,95.328
2023-05-02T00:23:57.599Z,95.480
2023-05-02T00:24:56.863Z,95.432
2023-05-02T00:25:57.049Z,95.497
2023-05-02T00:26:57.249Z,95.480
2023-05-02T00:27:57.433Z,95.606
2023-05-02T00:28:57.604Z,95.457
2023-05-02T00:29:56.822Z,95.669
2023-05-02T00:30:57.305Z,95.713
2023-05-02T00:31:56.705Z,95.635
2023-05-02T00:32:57.023Z,95.547
2023-05-02T00:34:57.115Z,95.574
2023-05-02T00:35:57.423Z,95.585
2023-05-02T00:36:57.610Z,95.600
2023-05-02T00:37:56.973Z,95.596
2023-05-02T00:38:57.010Z,95.663
2023-05-02T00:39:57.452Z,95.684
2023-05-02T00:40:56.803Z,95.610
2023-05-02T00:41:56.943Z,95.604
2023-05-02T00:42:57.210Z,95.629
2023-05-02T00:43:57.451Z,95.591
2023-05-02T00:44:56.591Z,95.493
2023-05-02T00:45:56.848Z,95.356
2023-05-02T00:46:57.432Z,95.287
2023-05-02T00:47:56.684Z,95.240
2023-05-02T00:48:57.169Z,95.257
2023-05-02T00:49:57.446Z,95.226
2023-05-02T00:50:56.608Z,95.259
2023-05-02T00:51:56.799Z,95.158
2023-05-02T00:52:56.976Z,95.167
2023-05-02T00:53:57.144Z,95.154
2023-05-02T00:54:57.556Z,95.051
2023-05-02T00:55:56.677Z,94.944
2023-05-02T00:56:56.831Z,95.207
2023-05-02T00:57:57.015Z,95.297
2023-05-02T00:58:57.216Z,95.389
2023-05-02T00:59:57.463Z,95.568
2023-05-02T01:00:56.782Z,95.537
2023-05-02T01:01:57.243Z,95.436
2023-05-02T01:02:57.454Z,95.373
2023-05-02T01:03:57.220Z,95.434
2023-05-02T01:08:57.221Z,95.421
2023-05-02T01:09:57.542Z,95.553
2023-05-02T01:10:56.843Z,95.446
2023-05-02T01:11:56.947Z,95.469
2023-05-02T01:12:57.091Z,95.637
2023-05-02T01:13:57.260Z,95.574
2023-05-02T01:14:57.428Z,95.719
2023-05-02T01:15:57.761Z,95.646
2023-05-02T01:16:57.135Z,95.600
2023-05-02T01:17:57.383Z,95.642
2023-05-02T01:18:56.713Z,95.566
2023-05-02T01:19:56.920Z,95.608
2023-05-02T01:20:57.143Z,95.715
2023-05-02T01:21:57.288Z,95.722
2023-05-02T01:22:57.540Z,95.650
2023-05-02T01:23:56.748Z,95.644
2023-05-02T01:24:57.080Z,95.549
2023-05-02T01:25:57.360Z,95.534
2023-05-02T01:26:57.385Z,95.482
2023-05-02T01:27:57.572Z,95.711
2023-05-02T01:28:56.670Z,95.751
2023-05-02T01:29:56.767Z,95.793
2023-05-02T01:30:56.944Z,95.883
2023-05-02T01:31:57.387Z,95.764
2023-05-02T01:32:57.711Z,95.850
2023-05-02T01:33:57.007Z,95.913
2023-05-02T01:34:57.151Z,95.799
2023-05-02T01:35:57.274Z,95.883
2023-05-02T01:36:57.379Z,95.896
2023-05-02T01:37:57.530Z,95.864
2023-05-02T01:38:56.655Z,95.902
2023-05-02T01:39:56.882Z,95.854
2023-05-02T01:40:57.179Z,95.936
2023-05-02T01:41:57.454Z,95.951
2023-05-02T01:42:56.688Z,95.923
2023-05-02T01:43:56.826Z,95.989
2023-05-02T01:44:57.006Z,95.970
2023-05-02T01:45:57.220Z,95.967
2023-05-02T01:46:57.674Z,95.947
2023-05-02T01:47:57.197Z,96.031
2023-05-02T01:48:57.409Z,95.997
2023-05-02T01:49:57.681Z,95.961
2023-05-02T01:50:56.901Z,95.898
2023-05-02T01:51:56.994Z,95.961
2023-05-02T01:52:57.311Z,96.056
2023-05-02T01:53:57.432Z,95.926
2023-05-02T01:54:57.598Z,96.028
2023-05-02T01:55:56.753Z,96.073
2023-05-02T01:56:56.866Z,95.986
2023-05-02T01:57:57.023Z,96.108
2023-05-02T01:58:57.198Z,96.110
2023-05-02T01:59:57.673Z,96.119
2023-05-02T02:00:57.079Z,96.096
2023-05-02T02:01:57.490Z,96.007
2023-05-02T02:02:56.666Z,95.890
2023-05-02T02:03:57.161Z,95.751
2023-05-02T02:04:56.574Z,95.745
2023-05-02T02:05:56.668Z,95.942
2023-05-02T02:06:57.050Z,96.028
2023-05-02T02:07:57.155Z,96.066
2023-05-02T02:08:57.305Z,96.073
2023-05-02T02:09:57.635Z,96.119
2023-05-02T02:10:56.932Z,96.092
2023-05-02T02:11:57.170Z,96.155
2023-05-02T02:12:57.344Z,96.316
2023-05-02T02:13:57.524Z,96.276
2023-05-02T02:14:56.557Z,96.379
2023-05-02T02:15:56.678Z,96.337
2023-05-02T02:16:57.172Z,96.481
2023-05-02T02:17:57.641Z,96.453
2023-05-02T02:18:57.103Z,96.506
2023-05-02T02:19:57.518Z,96.556
2023-05-02T02:20:56.800Z,96.621
2023-05-02T02:21:57.138Z,96.596
2023-05-02T02:22:57.288Z,96.636
2023-05-02T02:23:57.510Z,96.617
2023-05-02T02:24:56.652Z,96.705
2023-05-02T02:25:56.768Z,96.770
2023-05-02T02:26:56.910Z,96.621
2023-05-02T02:27:57.107Z,96.672
2023-05-02T02:28:57.347Z,96.632
2023-05-02T02:29:57.655Z,96.531
2023-05-02T02:30:56.971Z,96.548
2023-05-02T02:31:57.395Z,96.626
2023-05-02T02:32:57.824Z,96.571
2023-05-02T02:33:57.223Z,96.577
2023-05-02T02:34:57.376Z,96.605
2023-05-02T02:35:57.618Z,96.634
2023-05-02T02:36:56.732Z,96.663
2023-05-02T02:37:56.829Z,96.726
2023-05-02T02:38:57.051Z,96.644
2023-05-02T02:39:57.458Z,96.579
2023-05-02T02:40:56.670Z,96.588
2023-05-02T02:41:56.856Z,96.522
2023-05-02T02:42:57.116Z,96.537
2023-05-02T02:43:57.372Z,96.502
2023-05-02T02:44:57.532Z,96.455
2023-05-02T02:45:56.801Z,96.493
2023-05-02T02:46:57.189Z,96.455
2023-05-02T02:47:57.526Z,96.512
2023-05-02T02:48:56.887Z,96.520
2023-05-02T02:49:57.314Z,96.409
2023-05-02T02:50:57.568Z,96.451
2023-05-02T02:51:56.733Z,96.415
2023-05-02T02:52:56.933Z,96.388
2023-05-02T02:53:57.090Z,96.523
2023-05-02T02:55:58.348Z,96.501
2023-05-02T02:56:58.479Z,96.567
2023-05-02T02:57:57.653Z,96.550
2023-05-02T02:58:58.118Z,96.522
2023-05-02T02:59:58.578Z,96.462
2023-05-02T03:00:57.876Z,96.420
2023-05-02T03:01:58.329Z,96.537
2023-05-02T03:02:58.739Z,96.419
2023-05-02T03:03:58.398Z,96.424
2023-05-02T03:04:58.039Z,96.438
2023-05-02T03:05:58.183Z,96.493
2023-05-02T03:06:58.548Z,96.394
2023-05-02T03:07:57.704Z,96.424
2023-05-02T03:08:57.875Z,96.371
2023-05-02T03:09:58.333Z,96.541
2023-05-02T03:10:58.587Z,96.489
2023-05-02T03:11:57.868Z,96.443
2023-05-02T03:12:58.215Z,96.436
2023-05-02T03:13:58.332Z,96.394
2023-05-02T03:14:58.851Z,96.499
2023-05-02T03:15:58.077Z,96.552
2023-05-02T03:16:58.612Z,96.523
2023-05-02T03:17:57.816Z,96.560
2023-05-02T03:18:57.672Z,96.522
2023-05-02T03:19:57.910Z,96.558
2023-05-02T03:20:58.233Z,96.806
2023-05-02T03:21:58.328Z,96.810
2023-05-02T03:22:58.504Z,96.787
2023-05-02T03:23:57.624Z,96.701
2023-05-02T03:24:58.576Z,96.663
2023-05-02T03:25:57.701Z,96.747
2023-05-02T03:26:57.781Z,96.796
2023-05-02T03:27:58.129Z,96.682
2023-05-02T03:28:58.341Z,96.842
2023-05-02T03:29:58.888Z,96.737
2023-05-02T03:30:58.219Z,96.695
2023-05-02T03:31:58.696Z,96.703
2023-05-02T03:32:58.334Z,96.743
2023-05-02T03:34:58.151Z,96.760
2023-05-02T03:35:58.347Z,96.789
2023-05-02T03:36:58.467Z,96.852
2023-05-02T03:37:58.587Z,96.735
2023-05-02T03:38:57.691Z,96.716
2023-05-02T03:39:58.045Z,96.743
2023-05-02T03:40:58.368Z,96.771
2023-05-02T03:41:57.866Z,96.766
2023-05-02T03:42:58.039Z,96.647
2023-05-02T03:43:58.260Z,96.577
2023-05-02T03:44:58.474Z,96.562
2023-05-02T03:45:57.596Z,96.434
2023-05-02T03:46:58.074Z,96.352
2023-05-02T03:47:58.660Z,96.314
2023-05-02T03:48:57.816Z,96.344
2023-05-02T03:49:58.158Z,96.184
2023-05-02T03:50:58.621Z,96.155
2023-05-02T03:51:57.709Z,96.186
2023-05-02T03:52:57.863Z,96.121
2023-05-02T03:53:58.072Z,96.092
2023-05-02T03:54:58.205Z,96.104
2023-05-02T03:55:58.317Z,96.138
2023-05-02T03:57:01.457Z,96.108
2023-05-02T03:58:57.878Z,95.961
2023-05-02T03:59:58.304Z,95.919
2023-05-02T04:00:57.629Z,95.980
2023-05-02T04:01:57.996Z,95.940
2023-05-02T04:02:58.646Z,95.965
2023-05-02T04:03:58.061Z,95.915
2023-05-02T04:04:58.461Z,95.930
2023-05-02T04:05:58.677Z,95.757
2023-05-02T04:06:58.248Z,95.816
2023-05-02T04:07:58.643Z,95.709
2023-05-02T04:08:57.830Z,95.688
2023-05-02T04:09:58.196Z,95.658
2023-05-02T04:10:58.547Z,95.728
2023-05-02T04:11:57.839Z,95.551
2023-05-02T04:12:57.932Z,95.520
2023-05-02T04:13:58.097Z,95.484
2023-05-02T04:14:58.256Z,95.499
2023-05-02T04:15:58.402Z,95.419
2023-05-02T04:16:57.818Z,95.476
2023-05-02T04:17:58.375Z,95.484
2023-05-02T04:18:57.992Z,95.472
2023-05-02T04:19:58.263Z,95.455
2023-05-02T04:20:57.674Z,95.471
2023-05-02T04:21:57.808Z,95.318
2023-05-02T04:22:58.029Z,95.200
2023-05-02T04:23:58.144Z,95.146
2023-05-02T04:24:58.369Z,95.001
2023-05-02T04:25:57.852Z,94.885
2023-05-02T04:26:58.021Z,94.835
2023-05-02T04:27:58.066Z,94.864
2023-05-02T04:28:58.204Z,94.828
2023-05-02T04:29:58.548Z,94.731
2023-05-02T04:30:57.930Z,94.647
2023-05-02T04:31:58.315Z,94.416
2023-05-02T04:32:58.588Z,94.431
2023-05-02T04:33:57.895Z,94.420
2023-05-02T04:34:58.164Z,94.349
2023-05-02T04:35:58.493Z,94.341
2023-05-02T04:36:57.703Z,94.259
2023-05-02T04:37:57.815Z,94.145
2023-05-02T04:38:58.061Z,94.116
2023-05-02T04:39:58.307Z,94.097
2023-05-02T04:40:58.587Z,93.964
2023-05-02T04:41:57.706Z,93.918
2023-05-02T04:42:57.801Z,93.804
2023-05-02T04:43:57.964Z,93.863
2023-05-02T04:44:58.130Z,93.807
2023-05-02T04:45:58.457Z,93.804
2023-05-02T04:46:57.749Z,93.786
2023-05-02T04:47:57.905Z,93.723
2023-05-02T04:48:58.248Z,93.687
2023-05-02T04:49:58.699Z,93.586
2023-05-02T04:50:58.099Z,93.489
2023-05-02T04:51:57.613Z,93.447
2023-05-02T04:52:57.735Z,93.500
2023-05-02T04:53:57.823Z,93.432
2023-05-02T04:54:57.984Z,93.367
2023-05-02T04:55:58.184Z,93.224
2023-05-02T04:56:58.368Z,93.149
2023-05-02T04:57:58.546Z,93.210
2023-05-02T04:58:57.681Z,93.161
2023-05-02T04:59:57.922Z,93.105
2023-05-02T05:00:58.228Z,93.098
2023-05-02T05:01:57.821Z,93.052
2023-05-02T05:03:01.823Z,93.056
2023-05-02T05:03:58.084Z,93.079
2023-05-02T05:04:58.498Z,93.062
2023-05-02T05:05:57.773Z,92.960
2023-05-02T05:06:58.367Z,93.029
2023-05-02T05:08:57.745Z,92.808
2023-05-02T05:09:58.078Z,92.819
2023-05-02T05:10:58.539Z,92.705
2023-05-02T05:11:57.656Z,92.722
2023-05-02T05:12:57.819Z,92.844
2023-05-02T05:13:57.989Z,92.676
2023-05-02T05:14:58.110Z,92.604
2023-05-02T05:15:58.424Z,92.651
2023-05-02T05:16:57.829Z,92.657
2023-05-02T05:17:58.373Z,92.589
2023-05-02T05:18:57.746Z,92.585
2023-05-02T05:19:58.212Z,92.606
2023-05-02T05:20:58.516Z,92.516
2023-05-02T05:21:57.680Z,92.495
2023-05-02T05:22:57.850Z,92.495
2023-05-02T05:23:58.067Z,92.360
2023-05-02T05:24:58.290Z,92.325
2023-05-02T05:25:58.567Z,92.316
2023-05-02T05:26:57.676Z,92.377
2023-05-02T05:27:57.853Z,92.402
2023-05-02T05:28:57.983Z,92.404
2023-05-02T05:29:58.265Z,92.447
2023-05-02T05:30:58.673Z,92.428
2023-05-02T05:31:57.986Z,92.358
2023-05-02T05:32:58.582Z,92.095
2023-05-02T05:33:58.904Z,92.138
2023-05-02T05:34:58.134Z,92.268
2023-05-02T05:35:58.379Z,92.207
2023-05-02T05:36:58.562Z,92.239
2023-05-02T05:37:57.812Z,92.363
2023-05-02T05:38:58.032Z,92.631
2023-05-02T05:39:58.353Z,92.606
2023-05-02T05:40:58.594Z,92.648
2023-05-02T05:41:57.819Z,92.650
2023-05-02T05:42:57.922Z,92.638
2023-05-02T05:43:58.106Z,92.505
2023-05-02T05:44:58.240Z,92.379
2023-05-02T05:45:58.510Z,92.571
2023-05-02T05:46:57.704Z,92.629
2023-05-02T05:47:58.305Z,92.653
2023-05-02T05:48:57.952Z,92.596
2023-05-02T05:49:58.278Z,92.568
2023-05-02T05:50:57.685Z,92.531
2023-05-02T05:51:57.893Z,92.461
2023-05-02T05:52:58.052Z,92.539
2023-05-02T05:53:58.231Z,92.499
2023-05-02T05:54:58.429Z,92.573
2023-05-02T05:56:00.999Z,92.489
2023-05-02T05:57:58.427Z,92.234
2023-05-02T05:58:57.893Z,92.236
2023-05-02T05:59:58.183Z,92.207
2023-05-02T06:00:58.575Z,92.161
2023-05-02T06:01:57.723Z,92.272
2023-05-02T06:02:58.345Z,92.341
2023-05-02T06:03:57.987Z,92.035
2023-05-02T06:04:57.975Z,92.020
2023-05-02T06:05:58.888Z,91.938
2023-05-02T06:06:58.507Z,91.883
2023-05-02T06:07:57.638Z,91.763
2023-05-02T06:08:57.861Z,91.766
2023-05-02T06:09:58.260Z,91.637
2023-05-02T06:10:57.599Z,91.580
2023-05-02T06:11:57.812Z,91.585
2023-05-02T06:12:58.025Z,91.282
2023-05-02T06:13:58.220Z,91.631
2023-05-02T06:14:58.396Z,91.387
2023-05-02T06:15:58.617Z,91.194
2023-05-02T06:16:58.117Z,91.042
2023-05-02T06:17:58.499Z,91.194
2023-05-02T06:18:58.105Z,91.389
2023-05-02T06:19:58.570Z,91.406
2023-05-02T06:20:57.724Z,90.857
2023-05-02T06:21:57.941Z,90.344
2023-05-02T06:22:58.051Z,90.935
2023-05-02T06:23:58.625Z,90.818
2023-05-02T06:24:57.714Z,90.981
2023-05-02T06:25:57.964Z,90.529
2023-05-02T06:26:58.139Z,90.750
2023-05-02T06:27:58.297Z,90.380
2023-05-02T06:28:58.452Z,90.244
2023-05-02T06:29:57.759Z,90.370
2023-05-02T06:30:58.176Z,90.391
2023-05-02T06:31:58.873Z,90.099
2023-05-02T06:32:58.228Z,89.848
2023-05-02T06:33:58.585Z,90.132
2023-05-02T06:34:57.683Z,89.407
2023-05-02T06:35:59.151Z,89.628
2023-05-02T06:36:58.076Z,89.750
2023-05-02T06:37:58.220Z,89.975
2023-05-02T06:38:58.312Z,90.117
2023-05-02T06:39:58.804Z,89.396
2023-05-02T06:40:58.009Z,89.274
2023-05-02T06:41:58.416Z,89.764
2023-05-02T06:42:58.564Z,89.922
2023-05-02T06:43:57.680Z,89.708
2023-05-02T06:44:57.775Z,89.209
2023-05-02T06:45:58.036Z,89.226
2023-05-02T06:46:58.456Z,89.295
2023-05-02T06:47:58.016Z,89.386
2023-05-02T06:48:58.532Z,89.390
2023-05-02T06:49:57.732Z,89.634
2023-05-02T06:50:58.292Z,89.739
2023-05-02T06:51:58.385Z,89.613
2023-05-02T06:52:58.645Z,89.302
2023-05-02T06:53:57.754Z,88.718
2023-05-02T06:54:57.892Z,88.791
2023-05-02T06:55:58.119Z,89.150
2023-05-02T06:56:58.350Z,88.703
2023-05-02T06:57:58.601Z,88.491
2023-05-02T06:58:57.691Z,88.232
2023-05-02T06:59:58.250Z,88.215
2023-05-02T07:00:58.140Z,88.909
2023-05-02T07:01:58.668Z,88.852
2023-05-02T07:02:57.960Z,89.041
2023-05-02T07:03:58.593Z,89.039
2023-05-02T07:04:57.956Z,88.053
2023-05-02T07:05:58.159Z,87.732
2023-05-02T07:06:58.652Z,88.272
2023-05-02T07:07:57.777Z,88.755
2023-05-02T07:08:57.981Z,88.776
2023-05-02T07:09:58.383Z,88.768
2023-05-02T07:10:58.217Z,88.537
2023-05-02T07:11:58.457Z,87.830
2023-05-02T07:12:57.603Z,88.188
2023-05-02T07:13:57.901Z,88.106
2023-05-02T07:14:58.240Z,88.163
2023-05-02T07:15:58.394Z,88.947
2023-05-02T07:16:57.847Z,88.995
2023-05-02T07:17:58.096Z,88.961
2023-05-02T07:18:57.643Z,88.862
2023-05-02T07:19:57.831Z,88.846
2023-05-02T07:20:58.037Z,88.745
2023-05-02T07:21:58.299Z,89.500
2023-05-02T07:22:58.457Z,89.491
2023-05-02T07:23:58.657Z,89.171
2023-05-02T07:24:57.878Z,89.085
2023-05-02T07:25:58.077Z,88.585
2023-05-02T07:26:58.339Z,88.474
2023-05-02T07:27:58.536Z,88.301
2023-05-02T07:28:57.699Z,87.606
2023-05-02T07:29:57.966Z,88.148
2023-05-02T07:30:58.315Z,87.875
2023-05-02T07:31:58.854Z,88.255
2023-05-02T07:32:58.439Z,88.322
2023-05-02T07:33:58.022Z,88.409
2023-05-02T07:34:58.227Z,87.692
2023-05-02T07:35:58.455Z,88.158
2023-05-02T07:37:57.745Z,87.872
2023-05-02T07:38:57.951Z,87.517
2023-05-02T07:39:58.774Z,87.746
2023-05-02T07:40:58.210Z,87.713
2023-05-02T07:41:58.317Z,87.650
2023-05-02T07:42:58.505Z,87.025
2023-05-02T07:43:57.726Z,87.521
2023-05-02T07:44:57.853Z,87.378
2023-05-02T07:45:58.194Z,87.423
2023-05-02T07:46:58.800Z,88.320
2023-05-02T07:47:58.151Z,87.278
2023-05-02T07:48:58.567Z,87.214
2023-05-02T07:49:57.932Z,86.504
2023-05-02T07:50:58.299Z,86.655
2023-05-02T07:51:58.476Z,87.053
2023-05-02T07:52:57.672Z,87.042
2023-05-02T07:53:57.924Z,86.802
2023-05-02T07:54:58.103Z,86.550
2023-05-02T07:55:58.247Z,87.017
2023-05-02T07:56:58.525Z,87.524
2023-05-02T07:57:57.780Z,85.783
2023-05-02T07:58:57.950Z,86.142
2023-05-02T07:59:58.340Z,85.699
2023-05-02T08:00:57.693Z,84.616
2023-05-02T08:01:57.920Z,85.918
2023-05-02T08:02:57.747Z,85.766
2023-05-02T08:03:58.974Z,84.490
2023-05-02T08:05:58.156Z,86.042
2023-05-02T08:06:58.598Z,85.436
2023-05-02T08:07:57.869Z,86.222
2023-05-02T08:08:57.992Z,84.309
2023-05-02T08:09:58.191Z,82.008
2023-05-02T08:10:58.620Z,84.751
2023-05-02T08:11:57.764Z,83.815
2023-05-02T08:12:57.948Z,81.596
2023-05-02T08:13:58.104Z,81.938
2023-05-02T08:14:58.315Z,82.184
2023-05-02T08:15:58.782Z,81.240
2023-05-02T08:16:58.367Z,82.382
2023-05-02T08:17:58.864Z,81.430
2023-05-02T08:18:58.479Z,82.289
2023-05-02T08:19:58.382Z,82.050
2023-05-02T08:21:58.096Z,83.708
2023-05-02T08:23:01.362Z,81.488
2023-05-02T08:23:57.838Z,81.926
2023-05-02T08:24:57.952Z,81.829
2023-05-02T08:25:58.244Z,80.137
2023-05-02T08:26:58.495Z,79.906
2023-05-02T08:27:57.663Z,79.498
2023-05-02T08:28:57.831Z,80.547
2023-05-02T08:30:01.093Z,79.000
2023-05-02T08:31:57.855Z,79.143
2023-05-02T08:32:58.333Z,80.696
2023-05-02T08:33:58.009Z,80.234
2023-05-02T08:34:58.537Z,79.300
2023-05-02T08:35:57.901Z,79.540
2023-05-02T08:36:59.986Z,79.401
2023-05-02T08:38:58.415Z,79.340
2023-05-02T08:39:57.718Z,77.997
2023-05-02T08:40:58.037Z,76.092
2023-05-02T08:41:58.301Z,76.773
2023-05-02T08:42:58.509Z,76.193
2023-05-02T08:43:57.778Z,76.248
2023-05-02T08:44:57.942Z,73.751
2023-05-02T08:45:58.308Z,74.932
2023-05-02T08:46:58.573Z,73.126
2023-05-02T08:47:58.085Z,72.311
2023-05-02T08:48:58.472Z,72.622
2023-05-02T08:49:58.870Z,74.123
2023-05-02T08:50:58.223Z,69.568
2023-05-02T08:51:58.457Z,70.720
2023-05-02T08:52:57.615Z,70.587
2023-05-02T08:53:57.871Z,67.852
2023-05-02T08:54:58.391Z,70.732
2023-05-02T08:55:57.715Z,68.701
2023-05-02T08:56:57.826Z,67.451
2023-05-02T08:57:58.184Z,64.842
2023-05-02T08:58:57.998Z,66.354
2023-05-02T08:59:58.365Z,70.734
2023-05-02T09:00:57.918Z,67.648
2023-05-02T09:01:58.464Z,66.784
2023-05-02T09:02:57.806Z,64.813
2023-05-02T09:03:58.194Z,67.236
2023-05-02T09:04:58.781Z,67.119
2023-05-02T09:05:58.123Z,67.886
2023-05-02T09:06:58.816Z,67.564
2023-05-02T09:07:58.269Z,65.265
2023-05-02T09:08:58.433Z,64.769
2023-05-02T09:09:58.451Z,64.985
2023-05-02T09:10:57.977Z,62.244
2023-05-02T09:11:58.132Z,62.385
2023-05-02T09:12:58.363Z,62.614
2023-05-02T09:13:58.603Z,62.088
2023-05-02T09:14:57.869Z,64.478
2023-05-02T09:15:58.085Z,62.280
2023-05-02T09:16:58.536Z,62.170
2023-05-02T09:17:57.901Z,58.603
2023-05-02T09:18:58.083Z,58.637
2023-05-02T09:19:58.376Z,60.646
2023-05-02T09:20:57.696Z,61.176
2023-05-02T09:21:57.991Z,61.699
2023-05-02T09:22:58.415Z,61.361
2023-05-02T09:23:58.644Z,64.729
2023-05-02T09:24:58.058Z,62.544
2023-05-02T09:25:58.422Z,62.423
2023-05-02T09:26:57.669Z,62.637
2023-05-02T09:27:57.891Z,62.256
2023-05-02T09:28:58.083Z,60.854
2023-05-02T09:29:58.344Z,63.060
2023-05-02T09:30:58.668Z,61.300
2023-05-02T09:31:58.369Z,61.548
2023-05-02T09:33:58.604Z,58.515
2023-05-02T09:34:57.953Z,59.488
2023-05-02T09:35:58.380Z,60.039
2023-05-02T09:36:58.005Z,56.907
2023-05-02T09:37:58.222Z,54.851
2023-05-02T09:38:58.480Z,55.542
2023-05-02T09:39:57.665Z,57.933
2023-05-02T09:40:57.945Z,55.393
2023-05-02T09:41:58.201Z,56.928
2023-05-02T09:42:58.412Z,56.352
2023-05-02T09:43:58.627Z,57.569
2023-05-02T09:44:58.095Z,56.823
2023-05-02T09:45:58.487Z,56.512
2023-05-02T09:46:57.952Z,57.075
2023-05-02T09:47:58.297Z,55.999
2023-05-02T09:48:58.591Z,55.273
2023-05-02T09:49:57.784Z,53.981
2023-05-02T09:50:58.057Z,52.667
2023-05-02T09:51:58.250Z,52.238
2023-05-02T09:52:58.595Z,52.003
2023-05-02T09:53:57.803Z,54.428
2023-05-02T09:54:58.301Z,53.930
2023-05-02T09:55:57.650Z,48.902
2023-05-02T09:56:58.322Z,50.006
2023-05-02T09:57:58.532Z,48.891
2023-05-02T09:58:57.693Z,49.850
2023-05-02T09:59:57.873Z,53.249
2023-05-02T10:00:58.210Z,53.007
2023-05-02T10:01:57.878Z,53.174
2023-05-02T10:02:58.254Z,52.728
2023-05-02T10:03:57.787Z,51.916
2023-05-02T10:04:58.362Z,54.645
2023-05-02T10:05:58.038Z,56.785
2023-05-02T10:06:59.375Z,57.577
2023-05-02T10:07:58.616Z,58.725
2023-05-02T10:08:57.901Z,60.547
2023-05-02T10:09:58.202Z,57.506
2023-05-02T10:10:58.603Z,57.966
2023-05-02T10:11:57.931Z,57.476
2023-05-02T10:12:58.430Z,58.176
2023-05-02T10:13:57.704Z,58.809
2023-05-02T10:14:58.089Z,57.581
2023-05-02T10:15:58.651Z,56.804
2023-05-02T10:16:58.115Z,57.844
2023-05-02T10:17:58.599Z,55.690
2023-05-02T10:18:58.063Z,55.263
2023-05-02T10:19:58.365Z,56.535
2023-05-02T10:20:58.741Z,56.184
2023-05-02T10:21:58.099Z,54.712
2023-05-02T10:22:58.444Z,55.532
2023-05-02T10:23:57.744Z,54.956
2023-05-02T10:24:58.152Z,53.743
2023-05-02T10:26:00.405Z,52.221
2023-05-02T10:27:58.001Z,49.547
2023-05-02T10:28:58.132Z,48.187
2023-05-02T10:29:58.354Z,49.055
2023-05-02T10:30:57.699Z,49.041
2023-05-02T10:31:58.316Z,49.468
2023-05-02T10:32:58.713Z,49.842
2023-05-02T10:33:58.405Z,52.701
2023-05-02T10:36:58.121Z,53.188
2023-05-02T10:37:58.313Z,52.894
2023-05-02T10:38:58.598Z,50.332
2023-05-02T10:39:57.915Z,49.413
2023-05-02T10:40:58.455Z,48.831
2023-05-02T10:41:58.629Z,49.354
2023-05-02T10:42:57.852Z,46.754
2023-05-02T10:43:58.295Z,45.043
2023-05-02T10:44:58.994Z,47.210
2023-05-02T10:45:58.428Z,48.135
2023-05-02T10:46:57.999Z,49.234
2023-05-02T10:50:57.986Z,51.258
2023-05-02T10:51:58.195Z,49.306
2023-05-02T10:52:58.519Z,50.683
2023-05-02T10:53:57.701Z,51.448
2023-05-02T10:54:58.038Z,50.882
2023-05-02T10:55:58.525Z,51.752
2023-05-02T10:56:57.772Z,51.290
2023-05-02T10:57:58.124Z,51.580
2023-05-02T10:58:58.337Z,50.537
2023-05-02T10:59:58.529Z,51.704
2023-05-02T11:00:57.785Z,52.059
2023-05-02T11:01:58.191Z,51.431
2023-05-02T11:02:59.149Z,52.486
2023-05-02T11:03:57.845Z,51.046
2023-05-02T11:04:58.147Z,51.462
2023-05-02T11:05:57.582Z,51.162
2023-05-02T11:06:58.068Z,49.840
2023-05-02T11:07:58.385Z,51.488
2023-05-02T11:08:57.791Z,49.344
2023-05-02T11:09:58.012Z,50.157
2023-05-02T11:10:58.348Z,51.788
2023-05-02T11:11:58.501Z,50.420
2023-05-02T11:12:57.747Z,51.158
2023-05-02T11:13:57.964Z,50.716
2023-05-02T11:14:58.159Z,52.501
2023-05-02T11:16:58.094Z,53.751
2023-05-02T11:17:58.472Z,53.638
2023-05-02T11:18:58.322Z,55.152
2023-05-02T11:19:57.672Z,55.202
2023-05-02T11:20:58.162Z,55.448
2023-05-02T11:21:58.384Z,56.917
2023-05-02T11:22:58.776Z,56.200
2023-05-02T11:23:58.338Z,57.495
2023-05-02T11:24:58.727Z,57.510
2023-05-02T11:25:58.131Z,58.940
2023-05-02T11:26:58.417Z,58.237
2023-05-02T11:27:57.712Z,59.087
2023-05-02T11:28:57.876Z,59.429
2023-05-02T11:29:58.105Z,60.222
2023-05-02T11:30:59.598Z,60.463
2023-05-02T11:31:58.055Z,60.720
2023-05-02T11:32:58.583Z,61.786
2023-05-02T11:33:58.259Z,61.683
2023-05-02T11:34:58.690Z,61.105
2023-05-02T11:35:58.175Z,62.570
2023-05-02T11:36:58.380Z,63.169
2023-05-02T11:37:57.701Z,63.106
2023-05-02T11:38:57.979Z,63.781
2023-05-02T11:39:58.196Z,64.588
2023-05-02T11:40:58.596Z,64.787
2023-05-02T11:41:57.880Z,66.127
2023-05-02T11:42:58.098Z,65.365
2023-05-02T11:43:58.328Z,66.997
2023-05-02T11:44:59.025Z,67.802
2023-05-02T11:45:58.628Z,67.733
2023-05-02T11:46:58.063Z,70.375
2023-05-02T11:47:58.511Z,72.698
2023-05-02T11:48:57.942Z,72.748
2023-05-02T11:50:58.969Z,75.353
2023-05-02T11:51:58.196Z,78.710
2023-05-02T11:52:58.485Z,76.044
2023-05-02T11:53:57.645Z,77.028
2023-05-02T11:54:57.919Z,76.328
2023-05-02T11:55:58.462Z,77.827
2023-05-02T11:56:57.725Z,76.542
2023-05-02T11:57:58.028Z,77.831
2023-05-02T11:58:58.338Z,78.470
2023-05-02T11:59:58.548Z,75.714
2023-05-02T12:00:57.842Z,77.558
2023-05-02T12:01:58.510Z,80.669
2023-05-02T12:02:58.048Z,81.005
2023-05-02T12:04:57.994Z,82.256
2023-05-02T12:05:58.672Z,82.228
2023-05-02T12:06:58.141Z,84.393
2023-05-02T12:07:58.643Z,82.754
2023-05-02T12:08:57.744Z,83.635
2023-05-02T12:09:57.959Z,84.866
2023-05-02T12:10:58.261Z,82.313
2023-05-02T12:11:58.565Z,83.368
2023-05-02T12:12:57.759Z,83.467
2023-05-02T12:13:58.023Z,82.504
2023-05-02T12:14:58.290Z,85.245
2023-05-02T12:16:58.479Z,82.853
2023-05-02T12:17:57.807Z,81.343
2023-05-02T12:18:58.169Z,83.548
2023-05-02T12:19:58.436Z,80.233
2023-05-02T12:20:57.708Z,81.972
2023-05-02T12:21:57.898Z,77.854
2023-05-02T12:22:58.211Z,77.129
2023-05-02T12:23:58.507Z,77.598
2023-05-02T12:24:57.732Z,79.527
2023-05-02T12:25:58.112Z,76.250
2023-05-02T12:26:58.388Z,75.291
2023-05-02T12:27:58.672Z,76.477
2023-05-02T12:28:58.170Z,77.803
2023-05-02T12:29:58.446Z,78.844
2023-05-02T12:30:58.679Z,81.984
2023-05-02T12:31:58.043Z,81.055
2023-05-02T12:32:58.440Z,83.433
2023-05-02T12:33:58.149Z,83.948
2023-05-02T12:34:58.436Z,80.835
2023-05-02T12:35:57.640Z,82.052
2023-05-02T12:36:57.830Z,81.966
2023-05-02T12:37:58.088Z,81.915
2023-05-02T12:38:58.507Z,80.622
2023-05-02T12:39:57.794Z,77.606
2023-05-02T12:40:58.348Z,74.928
2023-05-02T12:41:57.887Z,73.734
2023-05-02T12:42:58.124Z,73.208
2023-05-02T12:43:58.674Z,72.702
2023-05-02T12:44:57.892Z,72.088
2023-05-02T12:45:58.184Z,70.772
2023-05-02T12:46:58.563Z,71.197
2023-05-02T12:47:58.440Z,70.946
2023-05-02T12:48:57.821Z,69.662
2023-05-02T12:49:58.603Z,70.207
2023-05-02T12:52:58.620Z,71.996
2023-05-02T12:53:57.893Z,72.645
2023-05-02T12:54:58.069Z,73.133
2023-05-02T12:55:58.338Z,74.930
2023-05-02T12:56:58.813Z,75.773
2023-05-02T12:57:58.035Z,77.120